createdAt,value
2016-07-20T00:00:18.291Z,1011.39
2016-07-20T00:01:18.299Z,1011.45
2016-07-20T00:02:18.305Z,1011.46
2016-07-20T00:03:18.312Z,1011.42
2016-07-20T00:04:18.320Z,1011.43
2016-07-20T00:05:18.333Z,1011.44
2016-07-20T00:06:18.337Z,1011.46
2016-07-20T00:07:18.344Z,1011.44
2016-07-20T00:08:18.350Z,1011.45
2016-07-20T00:09:18.956Z,1011.44
2016-07-20T00:10:18.364Z,1011.48
2016-07-20T00:11:18.372Z,1011.48
2016-07-20T00:12:18.380Z,1011.49
2016-07-20T00:13:18.386Z,1011.5
2016-07-20T00:14:18.394Z,1011.48
2016-07-20T00:15:18.400Z,1011.48
2016-07-20T00:16:18.414Z,1011.46
2016-07-20T00:17:18.415Z,1011.48
2016-07-20T00:18:18.423Z,1011.48
2016-07-20T00:19:18.430Z,1011.46
2016-07-20T00:20:18.837Z,1011.44
2016-07-20T00:21:18.444Z,1011.44
2016-07-20T00:22:18.451Z,1011.43
2016-07-20T00:23:18.459Z,1011.39
2016-07-20T00:24:18.466Z,1011.44
2016-07-20T00:25:18.472Z,1011.4
2016-07-20T00:26:18.481Z,1011.4
2016-07-20T00:27:18.488Z,1011.4
2016-07-20T00:28:18.496Z,1011.4
2016-07-20T00:29:18.503Z,1011.38
2016-07-20T00:30:18.510Z,1011.33
2016-07-20T00:31:18.665Z,1011.32
2016-07-20T00:32:18.526Z,1011.32
2016-07-20T00:33:18.532Z,1011.35
2016-07-20T00:34:18.540Z,1011.34
2016-07-20T00:35:18.547Z,1011.37
2016-07-20T00:36:18.555Z,1011.34
2016-07-20T00:37:18.562Z,1011.33
2016-07-20T00:38:18.569Z,1011.31
2016-07-20T00:39:18.577Z,1011.31
2016-07-20T00:40:18.584Z,1011.31
2016-07-20T00:41:18.592Z,1011.32
2016-07-20T00:42:18.746Z,1011.31
2016-07-20T00:43:18.606Z,1011.29
2016-07-20T00:44:18.615Z,1011.26
2016-07-20T00:45:18.622Z,1011.25
2016-07-20T00:46:18.628Z,1011.3
2016-07-20T00:47:18.686Z,1011.26
2016-07-20T00:48:18.642Z,1011.28
2016-07-20T00:49:18.649Z,1011.29
2016-07-20T00:50:18.661Z,1011.27
2016-07-20T00:51:18.665Z,1011.28
2016-07-20T00:52:18.672Z,1011.27
2016-07-20T00:53:18.779Z,1011.3
2016-07-20T00:54:18.686Z,1011.29
2016-07-20T00:55:18.693Z,1011.27
2016-07-20T00:56:18.701Z,1011.28
2016-07-20T00:57:18.707Z,1011.26
2016-07-20T00:58:18.717Z,1011.23
2016-07-20T00:59:18.722Z,1011.24
2016-07-20T01:00:18.728Z,1011.27
2016-07-20T01:01:18.735Z,1011.22
2016-07-20T01:02:18.744Z,1011.21
2016-07-20T01:03:18.751Z,1011.2
2016-07-20T01:04:18.958Z,1011.16
2016-07-20T01:05:18.765Z,1011.14
2016-07-20T01:06:18.773Z,1011.12
2016-07-20T01:07:18.780Z,1011.09
2016-07-20T01:08:18.786Z,1011.12
2016-07-20T01:09:18.795Z,1011.12
2016-07-20T01:10:18.801Z,1011.11
2016-07-20T01:11:18.808Z,1011.09
2016-07-20T01:12:18.816Z,1011.08
2016-07-20T01:13:18.824Z,1011.08
2016-07-20T01:14:18.831Z,1011.06
2016-07-20T01:15:18.837Z,1011.06
2016-07-20T01:16:18.845Z,1011.04
2016-07-20T01:17:18.851Z,1011.03
2016-07-20T01:18:18.862Z,1011
2016-07-20T01:19:18.866Z,1011.02
2016-07-20T01:20:18.873Z,1011.05
2016-07-20T01:21:18.882Z,1011.02
2016-07-20T01:22:18.888Z,1011.01
2016-07-20T01:23:18.895Z,1011.03
2016-07-20T01:25:18.909Z,1011.03
2016-07-20T01:26:18.917Z,1011
2016-07-20T01:27:18.925Z,1011.01
2016-07-20T01:28:18.941Z,1010.97
2016-07-20T01:29:18.939Z,1010.97
2016-07-20T01:30:18.946Z,1010.92
2016-07-20T01:31:18.954Z,1010.96
2016-07-20T01:32:18.962Z,1010.92
2016-07-20T01:33:18.967Z,1010.91
2016-07-20T01:34:18.972Z,1010.92
2016-07-20T01:35:18.985Z,1010.87
2016-07-20T01:36:18.990Z,1010.88
2016-07-20T01:37:18.996Z,1010.88
2016-07-20T01:38:19.004Z,1010.9
2016-07-20T01:39:19.012Z,1010.86
2016-07-20T01:40:19.019Z,1010.88
2016-07-20T01:41:19.027Z,1010.85
2016-07-20T01:42:19.033Z,1010.89
2016-07-20T01:43:19.041Z,1010.88
2016-07-20T01:44:19.048Z,1010.89
2016-07-20T01:45:19.055Z,1010.88
2016-07-20T01:46:19.063Z,1010.88
2016-07-20T01:47:19.083Z,1010.88
2016-07-20T01:48:19.077Z,1010.85
2016-07-20T01:49:19.086Z,1010.88
2016-07-20T01:50:19.092Z,1010.84
2016-07-20T01:51:19.148Z,1010.82
2016-07-20T01:52:19.106Z,1010.87
2016-07-20T01:53:19.113Z,1010.84
2016-07-20T01:54:19.121Z,1010.83
2016-07-20T01:55:19.127Z,1010.82
2016-07-20T01:56:19.136Z,1010.8
2016-07-20T01:57:19.142Z,1010.79
2016-07-20T01:58:19.149Z,1010.77
2016-07-20T01:59:19.156Z,1010.74
2016-07-20T02:00:19.163Z,1010.74
2016-07-20T02:01:19.171Z,1010.72
2016-07-20T02:02:19.177Z,1010.69
2016-07-20T02:03:19.184Z,1010.69
2016-07-20T02:04:19.191Z,1010.68
2016-07-20T02:05:19.198Z,1010.68
2016-07-20T02:06:19.206Z,1010.69
2016-07-20T02:07:19.213Z,1010.69
2016-07-20T02:08:19.220Z,1010.69
2016-07-20T02:09:19.227Z,1010.69
2016-07-20T02:10:19.234Z,1010.69
2016-07-20T02:11:19.242Z,1010.68
2016-07-20T02:12:19.250Z,1010.7
2016-07-20T02:13:19.254Z,1010.7
2016-07-20T02:14:19.261Z,1010.67
2016-07-20T02:15:19.269Z,1010.64
2016-07-20T02:16:19.277Z,1010.64
2016-07-20T02:17:19.282Z,1010.66
2016-07-20T02:18:19.290Z,1010.61
2016-07-20T02:19:19.298Z,1010.6
2016-07-20T02:20:19.305Z,1010.6
2016-07-20T02:21:19.311Z,1010.58
2016-07-20T02:22:19.317Z,1010.56
2016-07-20T02:23:19.326Z,1010.56
2016-07-20T02:25:19.348Z,1010.53
2016-07-20T02:26:19.347Z,1010.53
2016-07-20T02:27:19.355Z,1010.52
2016-07-20T02:28:19.360Z,1010.53
2016-07-20T02:29:19.369Z,1010.51
2016-07-20T02:30:19.376Z,1010.48
2016-07-20T02:31:19.382Z,1010.47
2016-07-20T02:32:19.390Z,1010.46
2016-07-20T02:33:19.397Z,1010.47
2016-07-20T02:34:19.404Z,1010.47
2016-07-20T02:35:19.412Z,1010.43
2016-07-20T02:36:19.417Z,1010.44
2016-07-20T02:37:19.431Z,1010.43
2016-07-20T02:38:19.434Z,1010.4
2016-07-20T02:39:19.441Z,1010.4
2016-07-20T02:40:19.448Z,1010.39
2016-07-20T02:41:19.454Z,1010.4
2016-07-20T02:42:19.462Z,1010.41
2016-07-20T02:43:19.469Z,1010.39
2016-07-20T02:44:19.477Z,1010.4
2016-07-20T02:45:19.485Z,1010.37
2016-07-20T02:46:19.492Z,1010.35
2016-07-20T02:47:19.498Z,1010.32
2016-07-20T02:48:19.503Z,1010.35
2016-07-20T02:49:19.512Z,1010.31
2016-07-20T02:50:19.519Z,1010.31
2016-07-20T02:51:19.578Z,1010.31
2016-07-20T02:52:19.534Z,1010.31
2016-07-20T02:53:19.540Z,1010.31
2016-07-20T02:55:19.556Z,1010.3
2016-07-20T02:56:19.564Z,1010.3
2016-07-20T02:57:19.570Z,1010.29
2016-07-20T02:58:19.576Z,1010.3
2016-07-20T02:59:19.584Z,1010.28
2016-07-20T03:00:19.591Z,1010.28
2016-07-20T03:01:19.597Z,1010.28
2016-07-20T03:02:19.605Z,1010.28
2016-07-20T03:03:19.613Z,1010.29
2016-07-20T03:04:19.620Z,1010.26
2016-07-20T03:05:19.627Z,1010.3
2016-07-20T03:06:19.633Z,1010.28
2016-07-20T03:07:19.641Z,1010.29
2016-07-20T03:08:19.649Z,1010.31
2016-07-20T03:09:19.652Z,1010.31
2016-07-20T03:10:19.662Z,1010.3
2016-07-20T03:11:19.670Z,1010.29
2016-07-20T03:12:19.677Z,1010.32
2016-07-20T03:13:19.683Z,1010.31
2016-07-20T03:14:19.691Z,1010.33
2016-07-20T03:15:19.697Z,1010.31
2016-07-20T03:16:19.706Z,1010.34
2016-07-20T03:17:19.713Z,1010.28
2016-07-20T03:18:19.719Z,1010.31
2016-07-20T03:19:19.726Z,1010.24
2016-07-20T03:20:19.734Z,1010.25
2016-07-20T03:21:19.741Z,1010.29
2016-07-20T03:22:19.748Z,1010.27
2016-07-20T03:23:19.755Z,1010.32
2016-07-20T03:24:19.760Z,1010.26
2016-07-20T03:25:19.770Z,1010.28
2016-07-20T03:26:19.774Z,1010.27
2016-07-20T03:27:19.783Z,1010.31
2016-07-20T03:28:19.791Z,1010.3
2016-07-20T03:29:19.800Z,1010.3
2016-07-20T03:30:19.814Z,1010.31
2016-07-20T03:31:19.811Z,1010.34
2016-07-20T03:32:19.817Z,1010.35
2016-07-20T03:33:19.825Z,1010.35
2016-07-20T03:34:19.831Z,1010.32
2016-07-20T03:35:19.839Z,1010.33
2016-07-20T03:36:19.849Z,1010.31
2016-07-20T03:37:19.853Z,1010.33
2016-07-20T03:38:19.861Z,1010.33
2016-07-20T03:39:19.868Z,1010.32
2016-07-20T03:40:19.876Z,1010.35
2016-07-20T03:41:19.881Z,1010.28
2016-07-20T03:42:19.890Z,1010.26
2016-07-20T03:43:19.898Z,1010.24
2016-07-20T03:44:19.904Z,1010.25
2016-07-20T03:45:19.911Z,1010.24
2016-07-20T03:46:19.919Z,1010.23
2016-07-20T03:47:19.929Z,1010.24
2016-07-20T03:48:19.933Z,1010.24
2016-07-20T03:49:19.940Z,1010.19
2016-07-20T03:50:19.947Z,1010.22
2016-07-20T03:51:19.954Z,1010.22
2016-07-20T03:52:19.960Z,1010.19
2016-07-20T03:53:19.968Z,1010.24
2016-07-20T03:54:19.975Z,1010.19
2016-07-20T03:55:19.982Z,1010.22
2016-07-20T03:56:19.989Z,1010.24
2016-07-20T03:57:19.996Z,1010.19
2016-07-20T03:58:20.005Z,1010.23
2016-07-20T03:59:20.011Z,1010.18
2016-07-20T04:00:20.018Z,1010.16
2016-07-20T04:01:20.029Z,1010.17
2016-07-20T04:02:20.032Z,1010.13
2016-07-20T04:03:20.039Z,1010.18
2016-07-20T04:04:20.048Z,1010.11
2016-07-20T04:05:20.054Z,1010.13
2016-07-20T04:06:20.063Z,1010.11
2016-07-20T04:07:20.068Z,1010.12
2016-07-20T04:08:20.078Z,1010.08
2016-07-20T04:09:20.085Z,1010.06
2016-07-20T04:10:20.090Z,1010.11
2016-07-20T04:11:20.096Z,1010.06
2016-07-20T04:12:20.105Z,1010.03
2016-07-20T04:13:20.112Z,1010
2016-07-20T04:14:20.118Z,1009.98
2016-07-20T04:15:20.127Z,1009.98
2016-07-20T04:16:20.133Z,1009.96
2016-07-20T04:17:20.140Z,1009.95
2016-07-20T04:18:20.146Z,1009.97
2016-07-20T04:19:20.153Z,1009.95
2016-07-20T04:20:20.162Z,1009.95
2016-07-20T04:21:20.169Z,1009.98
2016-07-20T04:22:20.176Z,1009.97
2016-07-20T04:23:20.183Z,1009.99
2016-07-20T04:24:20.191Z,1009.99
2016-07-20T04:25:20.198Z,1010.03
2016-07-20T04:26:20.204Z,1010.06
2016-07-20T04:27:20.212Z,1010.06
2016-07-20T04:28:20.217Z,1010.06
2016-07-20T04:29:20.224Z,1010.1
2016-07-20T04:30:20.233Z,1010.06
2016-07-20T04:31:20.240Z,1010.1
2016-07-20T04:32:20.247Z,1010.02
2016-07-20T04:33:20.255Z,1010.02
2016-07-20T04:34:20.262Z,1010.04
2016-07-20T04:35:20.270Z,1010.01
2016-07-20T04:36:20.276Z,1010.03
2016-07-20T04:37:20.283Z,1010.02
2016-07-20T04:38:20.292Z,1010.03
2016-07-20T04:39:20.299Z,1010.01
2016-07-20T04:40:20.305Z,1009.99
2016-07-20T04:41:20.313Z,1009.98
2016-07-20T04:42:20.321Z,1010
2016-07-20T04:43:20.327Z,1009.99
2016-07-20T04:44:20.333Z,1009.97
2016-07-20T04:45:20.343Z,1009.97
2016-07-20T04:46:20.350Z,1010
2016-07-20T04:47:20.356Z,1009.98
2016-07-20T04:48:20.363Z,1009.96
2016-07-20T04:49:20.371Z,1009.96
2016-07-20T04:50:20.382Z,1009.95
2016-07-20T04:51:20.386Z,1009.94
2016-07-20T04:52:20.394Z,1009.92
2016-07-20T04:53:21.523Z,1009.91
2016-07-20T04:54:20.408Z,1009.95
2016-07-20T04:55:20.414Z,1009.95
2016-07-20T04:56:20.424Z,1009.97
2016-07-20T04:57:20.431Z,1009.95
2016-07-20T04:58:20.435Z,1010.04
2016-07-20T04:59:20.444Z,1010.21
2016-07-20T05:00:20.451Z,1010.31
2016-07-20T05:01:20.457Z,1010.3
2016-07-20T05:02:20.466Z,1010.35
2016-07-20T05:03:20.477Z,1010.43
2016-07-20T05:04:20.480Z,1010.39
2016-07-20T05:05:20.485Z,1010.47
2016-07-20T05:06:20.495Z,1010.47
2016-07-20T05:07:20.499Z,1010.55
2016-07-20T05:08:20.511Z,1010.57
2016-07-20T05:09:20.515Z,1010.56
2016-07-20T05:10:20.524Z,1010.62
2016-07-20T05:11:20.532Z,1010.65
2016-07-20T05:12:20.539Z,1010.67
2016-07-20T05:13:20.548Z,1010.71
2016-07-20T05:14:20.556Z,1010.71
2016-07-20T05:15:21.689Z,1010.74
2016-07-20T05:16:20.582Z,1010.74
2016-07-20T05:17:20.581Z,1010.79
2016-07-20T05:18:20.589Z,1010.76
2016-07-20T05:19:20.600Z,1010.76
2016-07-20T05:20:20.608Z,1010.76
2016-07-20T05:21:20.618Z,1010.77
2016-07-20T05:22:20.627Z,1010.78
2016-07-20T05:23:20.636Z,1010.75
2016-07-20T05:24:20.646Z,1010.76
2016-07-20T05:25:20.656Z,1010.77
2016-07-20T05:26:21.767Z,1010.75
2016-07-20T05:27:20.675Z,1010.75
2016-07-20T05:28:20.685Z,1010.75
2016-07-20T05:29:20.696Z,1010.75
2016-07-20T05:30:20.706Z,1010.77
2016-07-20T05:31:20.719Z,1010.79
2016-07-20T05:32:20.727Z,1010.8
2016-07-20T05:33:20.737Z,1010.75
2016-07-20T05:34:20.746Z,1010.81
2016-07-20T05:35:20.757Z,1010.87
2016-07-20T05:36:20.769Z,1010.89
2016-07-20T05:37:21.828Z,1010.9
2016-07-20T05:38:20.788Z,1010.91
2016-07-20T05:39:20.800Z,1010.91
2016-07-20T05:40:20.810Z,1010.91
2016-07-20T05:41:20.821Z,1010.91
2016-07-20T05:42:20.833Z,1010.89
2016-07-20T05:43:20.843Z,1010.96
2016-07-20T05:44:20.855Z,1010.98
2016-07-20T05:45:20.863Z,1010.99
2016-07-20T05:46:20.876Z,1011.01
2016-07-20T05:47:20.886Z,1011.01
2016-07-20T05:48:21.748Z,1011.01
2016-07-20T05:49:20.907Z,1010.97
2016-07-20T05:50:20.920Z,1011
2016-07-20T05:51:20.931Z,1011.02
2016-07-20T05:52:20.942Z,1011.01
2016-07-20T05:53:20.952Z,1011.09
2016-07-20T05:54:20.964Z,1011.09
2016-07-20T05:55:20.975Z,1011.09
2016-07-20T05:56:20.985Z,1011.12
2016-07-20T05:57:20.998Z,1011.22
2016-07-20T05:58:21.008Z,1011.28
2016-07-20T05:59:21.822Z,1011.3
2016-07-20T06:00:21.030Z,1011.38
2016-07-20T06:01:21.042Z,1011.37
2016-07-20T06:02:21.055Z,1011.37
2016-07-20T06:03:21.065Z,1011.43
2016-07-20T06:04:21.076Z,1011.43
2016-07-20T06:05:21.089Z,1011.47
2016-07-20T06:06:21.099Z,1011.53
2016-07-20T06:07:21.111Z,1011.55
2016-07-20T06:08:21.123Z,1011.57
2016-07-20T06:09:21.134Z,1011.62
2016-07-20T06:10:21.746Z,1011.63
2016-07-20T06:11:21.157Z,1011.73
2016-07-20T06:12:21.169Z,1011.65
2016-07-20T06:13:21.180Z,1011.58
2016-07-20T06:14:21.191Z,1011.56
2016-07-20T06:15:21.205Z,1011.63
2016-07-20T06:16:21.216Z,1011.63
2016-07-20T06:17:21.229Z,1011.61
2016-07-20T06:18:21.240Z,1011.67
2016-07-20T06:19:21.251Z,1011.64
2016-07-20T06:20:21.263Z,1011.63
2016-07-20T06:21:21.977Z,1011.6
2016-07-20T06:22:21.285Z,1011.55
2016-07-20T06:23:21.298Z,1011.57
2016-07-20T06:24:21.313Z,1011.5
2016-07-20T06:25:21.322Z,1011.49
2016-07-20T06:26:21.333Z,1011.44
2016-07-20T06:27:21.347Z,1011.4
2016-07-20T06:28:21.357Z,1011.38
2016-07-20T06:29:21.369Z,1011.27
2016-07-20T06:30:21.382Z,1011.29
2016-07-20T06:31:21.394Z,1011.32
2016-07-20T06:32:22.508Z,1011.27
2016-07-20T06:33:21.416Z,1011.25
2016-07-20T06:34:21.429Z,1011.18
2016-07-20T06:35:21.452Z,1011.18
2016-07-20T06:36:21.452Z,1011.21
2016-07-20T06:37:21.465Z,1011.17
2016-07-20T06:38:21.476Z,1011.13
2016-07-20T06:39:21.490Z,1011.03
2016-07-20T06:40:21.501Z,1011.01
2016-07-20T06:41:21.512Z,1010.93
2016-07-20T06:42:21.526Z,1010.93
2016-07-20T06:43:22.638Z,1010.88
2016-07-20T06:44:21.598Z,1010.84
2016-07-20T06:45:21.562Z,1010.85
2016-07-20T06:46:21.573Z,1010.83
2016-07-20T06:47:21.586Z,1010.79
2016-07-20T06:48:21.599Z,1010.76
2016-07-20T06:49:21.610Z,1010.74
2016-07-20T06:50:21.624Z,1010.67
2016-07-20T06:51:21.637Z,1010.74
2016-07-20T06:52:21.648Z,1010.75
2016-07-20T06:53:21.661Z,1010.69
2016-07-20T06:54:21.673Z,1010.63
2016-07-20T06:55:21.684Z,1010.56
2016-07-20T06:56:21.696Z,1010.58
2016-07-20T06:57:21.710Z,1010.55
2016-07-20T06:58:21.721Z,1010.55
2016-07-20T06:59:21.735Z,1010.53
2016-07-20T07:00:21.746Z,1010.5
2016-07-20T07:01:21.759Z,1010.42
2016-07-20T07:02:21.772Z,1010.38
2016-07-20T07:03:21.785Z,1010.37
2016-07-20T07:04:21.797Z,1010.33
2016-07-20T07:05:21.810Z,1010.29
2016-07-20T07:06:21.822Z,1010.31
2016-07-20T07:07:21.832Z,1010.27
2016-07-20T07:08:21.851Z,1010.27
2016-07-20T07:09:21.865Z,1010.22
2016-07-20T07:10:21.873Z,1010.23
2016-07-20T07:11:21.893Z,1010.18
2016-07-20T07:12:21.896Z,1010.21
2016-07-20T07:13:21.910Z,1010.16
2016-07-20T07:14:21.922Z,1010.1
2016-07-20T07:15:21.945Z,1010.12
2016-07-20T07:16:23.064Z,1010.11
2016-07-20T07:17:21.961Z,1010.11
2016-07-20T07:18:21.975Z,1010.08
2016-07-20T07:19:21.987Z,1010.13
2016-07-20T07:20:22.001Z,1010.11
2016-07-20T07:21:22.012Z,1010.08
2016-07-20T07:22:22.022Z,1010.04
2016-07-20T07:23:22.038Z,1010.05
2016-07-20T07:24:22.050Z,1010.08
2016-07-20T07:25:22.062Z,1010.03
2016-07-20T07:26:22.076Z,1010.05
2016-07-20T07:27:22.090Z,1010.06
2016-07-20T07:28:22.102Z,1010.01
2016-07-20T07:29:22.115Z,1010.05
2016-07-20T07:30:22.128Z,1010.01
2016-07-20T07:31:22.139Z,1009.92
2016-07-20T07:32:22.153Z,1009.9
2016-07-20T07:33:22.166Z,1009.96
2016-07-20T07:34:22.178Z,1009.92
2016-07-20T07:35:22.191Z,1009.93
2016-07-20T07:36:22.205Z,1009.95
2016-07-20T07:37:22.218Z,1009.96
2016-07-20T07:38:22.230Z,1009.93
2016-07-20T07:39:22.242Z,1009.94
2016-07-20T07:40:22.255Z,1009.88
2016-07-20T07:41:22.269Z,1009.85
2016-07-20T07:42:22.281Z,1009.83
2016-07-20T07:43:22.294Z,1009.87
2016-07-20T07:44:22.311Z,1009.58
2016-07-20T07:45:22.317Z,1009.18
2016-07-20T07:46:22.331Z,1009.09
2016-07-20T07:47:22.342Z,1009.06
2016-07-20T07:48:22.354Z,1009.04
2016-07-20T07:49:22.365Z,1009.02
2016-07-20T07:50:22.376Z,1009.01
2016-07-20T07:51:22.386Z,1009.04
2016-07-20T07:52:22.396Z,1009.01
2016-07-20T07:53:22.402Z,1008.99
2016-07-20T07:54:22.414Z,1008.92
2016-07-20T07:55:22.422Z,1008.95
2016-07-20T07:56:22.429Z,1008.9
2016-07-20T07:57:22.484Z,1008.85
2016-07-20T07:58:22.448Z,1008.91
2016-07-20T07:59:22.453Z,1008.84
2016-07-20T08:00:22.462Z,1008.8
2016-07-20T08:01:22.468Z,1008.84
2016-07-20T08:02:22.478Z,1008.82
2016-07-20T08:03:22.487Z,1008.83
2016-07-20T08:04:22.493Z,1008.79
2016-07-20T08:05:22.504Z,1008.79
2016-07-20T08:06:22.513Z,1008.78
2016-07-20T08:07:22.522Z,1008.8
2016-07-20T08:08:22.527Z,1008.82
2016-07-20T08:09:22.537Z,1008.77
2016-07-20T08:10:22.543Z,1008.81
2016-07-20T08:11:22.553Z,1008.83
2016-07-20T08:12:22.562Z,1008.82
2016-07-20T08:13:22.572Z,1008.81
2016-07-20T08:14:22.578Z,1008.81
2016-07-20T08:15:22.588Z,1008.78
2016-07-20T08:16:22.596Z,1008.8
2016-07-20T08:17:22.605Z,1008.82
2016-07-20T08:18:22.612Z,1008.81
2016-07-20T08:19:22.622Z,1008.77
2016-07-20T08:20:22.630Z,1008.71
2016-07-20T08:21:22.638Z,1008.73
2016-07-20T08:22:22.652Z,1008.69
2016-07-20T08:23:22.653Z,1008.67
2016-07-20T08:24:22.664Z,1008.69
2016-07-20T08:25:22.672Z,1008.67
2016-07-20T08:26:22.676Z,1008.66
2016-07-20T08:27:22.689Z,1008.63
2016-07-20T08:28:22.697Z,1008.64
2016-07-20T08:29:22.704Z,1008.63
2016-07-20T08:30:22.714Z,1008.63
2016-07-20T08:31:22.721Z,1008.6
2016-07-20T08:32:22.730Z,1008.58
2016-07-20T08:33:22.743Z,1008.57
2016-07-20T08:34:22.745Z,1008.55
2016-07-20T08:35:22.754Z,1008.6
2016-07-20T08:36:22.760Z,1008.55
2016-07-20T08:37:22.768Z,1008.57
2016-07-20T08:38:22.776Z,1008.46
2016-07-20T08:39:22.782Z,1008.5
2016-07-20T08:40:22.791Z,1008.51
2016-07-20T08:41:22.802Z,1008.42
2016-07-20T08:42:22.804Z,1008.37
2016-07-20T08:43:22.809Z,1008.36
2016-07-20T08:44:22.816Z,1008.35
2016-07-20T08:45:22.824Z,1008.4
2016-07-20T08:46:22.831Z,1008.25
2016-07-20T08:47:22.838Z,1008.25
2016-07-20T08:48:22.846Z,1008.27
2016-07-20T08:49:22.852Z,1008.27
2016-07-20T08:50:22.862Z,1008.22
2016-07-20T08:51:22.868Z,1008.25
2016-07-20T08:52:22.874Z,1008.19
2016-07-20T08:53:22.888Z,1008.19
2016-07-20T08:54:22.892Z,1008.17
2016-07-20T08:55:22.900Z,1008.17
2016-07-20T08:56:22.908Z,1008.16
2016-07-20T08:57:22.977Z,1008.21
2016-07-20T08:58:22.922Z,1008.21
2016-07-20T08:59:22.931Z,1008.2
2016-07-20T09:00:22.938Z,1008.15
2016-07-20T09:01:22.946Z,1008.18
2016-07-20T09:02:22.954Z,1008.17
2016-07-20T09:03:22.961Z,1008.16
2016-07-20T09:04:22.969Z,1008.17
2016-07-20T09:05:22.977Z,1008.1
2016-07-20T09:06:22.984Z,1008.13
2016-07-20T09:07:22.991Z,1008.17
2016-07-20T09:08:23.000Z,1008.04
2016-07-20T09:09:23.011Z,1008.09
2016-07-20T09:10:23.016Z,1008.09
2016-07-20T09:11:23.025Z,1008.1
2016-07-20T09:12:23.033Z,1008.11
2016-07-20T09:13:23.041Z,1008.05
2016-07-20T09:14:23.050Z,1008.12
2016-07-20T09:15:23.059Z,1008.11
2016-07-20T09:16:23.066Z,1008.04
2016-07-20T09:17:23.073Z,1007.99
2016-07-20T09:18:23.083Z,1008.05
2016-07-20T09:19:23.090Z,1008.04
2016-07-20T09:20:23.098Z,1008.02
2016-07-20T09:21:23.109Z,1008.04
2016-07-20T09:22:23.114Z,1008.04
2016-07-20T09:23:23.123Z,1008.02
2016-07-20T09:24:23.132Z,1008.01
2016-07-20T09:25:23.137Z,1008
2016-07-20T09:26:23.153Z,1008.05
2016-07-20T09:27:23.155Z,1008.03
2016-07-20T09:28:23.163Z,1007.95
2016-07-20T09:29:23.169Z,1007.95
2016-07-20T09:30:23.177Z,1007.93
2016-07-20T09:31:23.186Z,1007.9
2016-07-20T09:32:23.191Z,1007.93
2016-07-20T09:33:23.202Z,1007.96
2016-07-20T09:34:23.210Z,1007.92
2016-07-20T09:35:23.218Z,1007.89
2016-07-20T09:36:23.224Z,1007.91
2016-07-20T09:37:23.231Z,1007.84
2016-07-20T09:38:23.237Z,1007.89
2016-07-20T09:39:23.244Z,1007.88
2016-07-20T09:40:23.250Z,1007.82
2016-07-20T09:41:23.257Z,1007.82
2016-07-20T09:42:23.264Z,1007.77
2016-07-20T09:43:23.271Z,1007.8
2016-07-20T09:44:23.280Z,1007.79
2016-07-20T09:45:23.288Z,1007.72
2016-07-20T09:46:23.294Z,1007.69
2016-07-20T09:47:23.301Z,1007.84
2016-07-20T09:48:23.309Z,1007.77
2016-07-20T09:49:23.318Z,1007.76
2016-07-20T09:50:23.322Z,1007.81
2016-07-20T09:51:23.331Z,1007.75
2016-07-20T09:52:23.338Z,1007.75
2016-07-20T09:53:23.346Z,1007.77
2016-07-20T09:54:23.363Z,1007.67
2016-07-20T09:55:23.360Z,1007.69
2016-07-20T09:56:23.369Z,1007.65
2016-07-20T09:57:23.373Z,1007.71
2016-07-20T09:58:23.382Z,1007.72
2016-07-20T09:59:23.392Z,1007.7
2016-07-20T10:00:23.397Z,1007.76
2016-07-20T10:01:23.402Z,1007.75
2016-07-20T10:02:23.411Z,1007.76
2016-07-20T10:03:23.666Z,1007.71
2016-07-20T10:04:23.426Z,1007.67
2016-07-20T10:05:23.431Z,1007.68
2016-07-20T10:06:23.438Z,1007.67
2016-07-20T10:07:23.446Z,1007.68
2016-07-20T10:08:23.452Z,1007.63
2016-07-20T10:09:23.459Z,1007.65
2016-07-20T10:10:23.465Z,1007.65
2016-07-20T10:11:23.473Z,1007.63
2016-07-20T10:12:23.477Z,1007.63
2016-07-20T10:13:23.485Z,1007.68
2016-07-20T10:14:24.241Z,1007.64
2016-07-20T10:15:23.497Z,1007.66
2016-07-20T10:16:23.504Z,1007.62
2016-07-20T10:17:23.511Z,1007.6
2016-07-20T10:18:23.518Z,1007.6
2016-07-20T10:19:23.527Z,1007.59
2016-07-20T10:20:23.532Z,1007.57
2016-07-20T10:21:23.542Z,1007.58
2016-07-20T10:22:23.549Z,1007.56
2016-07-20T10:23:23.556Z,1007.58
2016-07-20T10:24:23.563Z,1007.61
2016-07-20T10:25:24.672Z,1007.51
2016-07-20T10:26:23.581Z,1007.46
2016-07-20T10:27:23.589Z,1007.46
2016-07-20T10:28:23.595Z,1007.48
2016-07-20T10:29:23.602Z,1007.52
2016-07-20T10:30:23.610Z,1007.43
2016-07-20T10:31:23.618Z,1007.49
2016-07-20T10:32:23.626Z,1007.53
2016-07-20T10:33:23.635Z,1007.52
2016-07-20T10:34:23.640Z,1007.5
2016-07-20T10:35:23.645Z,1007.43
2016-07-20T10:36:23.650Z,1007.48
2016-07-20T10:37:23.657Z,1007.49
2016-07-20T10:38:23.664Z,1007.44
2016-07-20T10:39:23.671Z,1007.43
2016-07-20T10:40:23.678Z,1007.62
2016-07-20T10:41:23.690Z,1007.57
2016-07-20T10:42:23.693Z,1007.39
2016-07-20T10:43:23.700Z,1007.44
2016-07-20T10:44:23.708Z,1007.4
2016-07-20T10:45:23.711Z,1007.49
2016-07-20T10:46:23.720Z,1007.43
2016-07-20T10:47:23.729Z,1007.36
2016-07-20T10:48:23.737Z,1007.43
2016-07-20T10:49:23.741Z,1007.33
2016-07-20T10:50:23.748Z,1007.31
2016-07-20T10:51:23.755Z,1007.33
2016-07-20T10:52:23.762Z,1007.29
2016-07-20T10:53:23.774Z,1007.4
2016-07-20T10:55:23.784Z,1007.35
2016-07-20T10:56:23.791Z,1007.29
2016-07-20T10:57:23.798Z,1007.28
2016-07-20T10:58:23.808Z,1007.28
2016-07-20T10:59:23.857Z,1007.25
2016-07-20T11:00:23.813Z,1007.24
2016-07-20T11:01:23.821Z,1007.27
2016-07-20T11:02:23.829Z,1007.23
2016-07-20T11:03:23.833Z,1007.28
2016-07-20T11:04:23.842Z,1007.33
2016-07-20T11:05:23.849Z,1007.22
2016-07-20T11:06:23.855Z,1007.21
2016-07-20T11:07:24.010Z,1007.23
2016-07-20T11:08:23.869Z,1007.26
2016-07-20T11:09:23.878Z,1007.18
2016-07-20T11:10:23.883Z,1007.18
2016-07-20T11:11:23.888Z,1007.14
2016-07-20T11:12:23.895Z,1007.16
2016-07-20T11:13:23.904Z,1007.21
2016-07-20T11:14:23.910Z,1007.22
2016-07-20T11:15:23.921Z,1007.29
2016-07-20T11:16:23.923Z,1007.14
2016-07-20T11:17:23.929Z,1007.08
2016-07-20T11:18:24.185Z,1007.07
2016-07-20T11:19:23.944Z,1007
2016-07-20T11:20:23.950Z,1007.06
2016-07-20T11:21:23.957Z,1007.04
2016-07-20T11:22:23.965Z,1007.05
2016-07-20T11:23:23.971Z,1007.03
2016-07-20T11:24:23.977Z,1006.95
2016-07-20T11:25:23.982Z,1006.94
2016-07-20T11:26:23.989Z,1006.95
2016-07-20T11:27:23.995Z,1006.96
2016-07-20T11:28:24.002Z,1006.95
2016-07-20T11:29:24.405Z,1006.9
2016-07-20T11:30:24.015Z,1006.85
2016-07-20T11:31:24.021Z,1006.88
2016-07-20T11:32:24.028Z,1006.87
2016-07-20T11:33:24.034Z,1006.91
2016-07-20T11:34:24.040Z,1006.85
2016-07-20T11:35:24.045Z,1006.79
2016-07-20T11:36:24.049Z,1006.8
2016-07-20T11:37:24.056Z,1006.75
2016-07-20T11:38:24.062Z,1006.81
2016-07-20T11:39:24.071Z,1006.78
2016-07-20T11:40:24.725Z,1006.79
2016-07-20T11:41:24.083Z,1006.82
2016-07-20T11:42:24.090Z,1006.79
2016-07-20T11:43:24.100Z,1006.71
2016-07-20T11:44:24.103Z,1006.73
2016-07-20T11:45:24.111Z,1006.74
2016-07-20T11:46:24.119Z,1006.7
2016-07-20T11:47:24.123Z,1006.7
2016-07-20T11:48:24.134Z,1006.69
2016-07-20T11:49:24.141Z,1006.74
2016-07-20T11:50:24.149Z,1006.65
2016-07-20T11:51:24.856Z,1006.62
2016-07-20T11:52:24.167Z,1006.59
2016-07-20T11:53:24.174Z,1006.64
2016-07-20T11:54:24.182Z,1006.56
2016-07-20T11:55:24.190Z,1006.58
2016-07-20T11:56:24.199Z,1006.6
2016-07-20T11:57:24.211Z,1006.57
2016-07-20T11:58:24.214Z,1006.65
2016-07-20T11:59:24.222Z,1006.76
2016-07-20T12:00:24.231Z,1006.56
2016-07-20T12:01:24.242Z,1006.55
2016-07-20T12:02:25.096Z,1006.63
2016-07-20T12:03:24.256Z,1006.63
2016-07-20T12:04:24.263Z,1006.58
2016-07-20T12:05:24.270Z,1006.55
2016-07-20T12:06:24.276Z,1006.56
2016-07-20T12:07:24.283Z,1006.48
2016-07-20T12:08:24.296Z,1006.51
2016-07-20T12:09:24.294Z,1006.47
2016-07-20T12:10:24.303Z,1006.51
2016-07-20T12:11:24.310Z,1006.45
2016-07-20T12:12:24.318Z,1006.42